Time;durP1;ratioP1;P1;durP2;ratioP2;P2;SDS_P1;SDS_P2;PMS_P1;PMS_P2;Temp;Humidity;BMP_temperature;BMP_pressure;BME280_temperature;BME280_humidity;BME280_pressure;Samples;Min_cycle;Max_cycle;Signal;HPM_P1;HPM_P2
2023/10/30 00:02:12;;;;;;;0.20;0.20;;;10.10;99.90;;;;;;5087432;28;20052;-61
2023/10/30 00:04:38;;;;;;;2.35;0.85;;;10.00;99.90;;;;;;5066270;28;20044;-61
2023/10/30 00:07:03;;;;;;;0.20;0.20;;;9.90;99.90;;;;;;5087206;28;20119;-63
2023/10/30 00:09:29;;;;;;;0.20;0.20;;;10.20;99.90;;;;;;5087089;28;20133;-63
2023/10/30 00:11:55;;;;;;;0.20;0.20;;;10.10;99.90;;;;;;5087256;28;20471;-61
2023/10/30 00:14:21;;;;;;;0.40;0.40;;;10.20;99.90;;;;;;5076841;28;20047;-61
2023/10/30 00:16:46;;;;;;;1.65;1.55;;;10.30;99.90;;;;;;5060216;28;20055;-60
2023/10/30 00:19:12;;;;;;;0.10;0.10;;;10.40;99.90;;;;;;5073231;28;20553;-62
2023/10/30 00:21:38;;;;;;;0.25;0.25;;;10.00;99.90;;;;;;5073617;28;20052;-61
2023/10/30 00:24:04;;;;;;;0.20;0.20;;;10.50;99.90;;;;;;5073396;28;20155;-62
2023/10/30 00:26:29;;;;;;;0.10;0.10;;;10.00;99.90;;;;;;5060027;28;20048;-61
2023/10/30 00:28:57;;;;;;;0.30;0.30;;;10.30;99.90;;;;;;5073072;28;20048;-60
2023/10/30 00:31:23;;;;;;;0.13;0.13;;;10.40;99.90;;;;;;5059950;28;20119;-62
2023/10/30 00:33:49;;;;;;;0.40;0.40;;;10.70;99.90;;;;;;5073452;28;20576;-61
2023/10/30 00:36:14;;;;;;;0.40;0.38;;;10.90;99.90;;;;;;5072945;28;20121;-61
2023/10/30 00:38:40;;;;;;;0.30;0.30;;;10.30;99.90;;;;;;5073288;28;20047;-61
2023/10/30 00:41:11;;;;;;;1.35;0.35;;;10.60;99.90;;;;;;5072729;28;20518;-61
2023/10/30 00:43:37;;;;;;;0.10;0.10;;;10.60;99.90;;;;;;5072912;28;20420;-61
2023/10/30 00:46:08;;;;;;;0.20;0.20;;;10.50;99.90;;;;;;5073083;28;20110;-60
2023/10/30 00:48:34;;;;;;;0.10;0.10;;;10.20;99.90;;;;;;5073357;28;20078;-62
2023/10/30 00:51:00;;;;;;;0.10;0.10;;;10.50;99.90;;;;;;5072886;28;20424;-61
2023/10/30 00:53:26;;;;;;;0.10;0.10;;;10.50;99.90;;;;;;5072791;28;20066;-61
2023/10/30 00:55:52;;;;;;;0.10;0.10;;;10.50;99.90;;;;;;5072902;28;20450;-62
2023/10/30 00:58:18;;;;;;;0.60;0.38;;;10.30;99.90;;;;;;5073276;28;20044;-61
2023/10/30 01:00:43;;;;;;;0.10;0.10;;;10.40;99.90;;;;;;5073346;28;20048;-61
2023/10/30 01:03:09;;;;;;;0.20;0.20;;;10.30;99.90;;;;;;5072962;28;20118;-61
2023/10/30 01:05:35;;;;;;;0.20;0.20;;;10.50;99.90;;;;;;5073303;28;20059;-61
2023/10/30 01:08:01;;;;;;;0.13;0.13;;;10.40;99.90;;;;;;5072825;28;20041;-60
2023/10/30 01:10:27;;;;;;;0.35;0.35;;;9.90;99.90;;;;;;5073038;28;20131;-61
2023/10/30 01:12:52;;;;;;;0.90;0.68;;;10.00;99.90;;;;;;5072746;28;20051;-60
2023/10/30 01:15:18;;;;;;;0.20;0.20;;;10.20;99.90;;;;;;5073127;28;20396;-60
2023/10/30 01:17:44;;;;;;;0.10;0.10;;;10.10;99.90;;;;;;5072913;28;20818;-60
2023/10/30 01:20:10;;;;;;;0.20;0.20;;;10.40;99.90;;;;;;5054723;28;20143;-62
2023/10/30 01:22:36;;;;;;;0.10;0.10;;;10.40;99.90;;;;;;5072724;28;20396;-61
2023/10/30 01:25:02;;;;;;;0.20;0.20;;;10.50;99.90;;;;;;5071375;28;20048;-60
2023/10/30 01:27:27;;;;;;;0.20;0.20;;;10.00;99.90;;;;;;5072394;28;20045;-61
2023/10/30 01:29:53;;;;;;;0.20;0.20;;;10.10;99.90;;;;;;5072363;28;20052;-60
2023/10/30 01:32:19;;;;;;;0.20;0.20;;;9.90;99.90;;;;;;5072442;28;20044;-60
2023/10/30 01:34:44;;;;;;;0.20;0.20;;;9.90;99.90;;;;;;5072941;28;20044;-62
2023/10/30 01:37:10;;;;;;;0.10;0.10;;;10.50;99.90;;;;;;5072246;28;20108;-60
2023/10/30 01:39:37;;;;;;;0.20;0.20;;;9.80;99.90;;;;;;5072505;28;20045;-60
2023/10/30 01:42:03;;;;;;;0.20;0.20;;;10.30;99.90;;;;;;5072220;28;20055;-61
2023/10/30 01:44:29;;;;;;;;;;;10.30;99.90;;;;;;5072805;28;20048;-61
2023/10/30 01:46:54;;;;;;;0.20;0.20;;;10.10;99.90;;;;;;5072208;28;19931;-61
2023/10/30 01:49:21;;;;;;;0.20;0.20;;;9.90;99.90;;;;;;5072261;28;20040;-60
2023/10/30 01:51:47;;;;;;;0.20;0.20;;;10.00;99.90;;;;;;5072022;28;20048;-60
2023/10/30 01:54:13;;;;;;;0.65;0.38;;;10.20;99.90;;;;;;5072280;28;20049;-62
2023/10/30 01:56:40;;;;;;;0.10;0.10;;;10.20;99.90;;;;;;5071958;28;20106;-60
2023/10/30 01:59:07;;;;;;;0.20;0.20;;;10.10;99.90;;;;;;5072066;28;20043;-61
2023/10/30 02:01:35;;;;;;;0.10;0.10;;;9.90;99.90;;;;;;5071521;28;20064;-60
2023/10/30 02:04:00;;;;;;;0.20;0.20;;;10.00;99.90;;;;;;5071802;28;20052;-60
2023/10/30 02:06:26;;;;;;;0.22;0.22;;;10.30;99.90;;;;;;5071571;28;20055;-61
2023/10/30 02:08:52;;;;;;;0.52;0.52;;;10.00;99.90;;;;;;5071927;28;20076;-60
2023/10/30 02:11:18;;;;;;;4.68;0.68;;;10.10;99.90;;;;;;5071626;28;20080;-60
2023/10/30 02:13:53;;;;;;;0.20;0.20;;;9.70;99.90;;;;;;5071911;28;20332;-62
2023/10/30 02:16:20;;;;;;;0.20;0.20;;;10.30;99.90;;;;;;5071586;28;20036;-62
2023/10/30 02:18:45;;;;;;;;;;;9.90;99.90;;;;;;5072219;28;20048;-60
2023/10/30 02:21:12;;;;;;;0.43;0.43;;;10.20;99.90;;;;;;5071499;28;19981;-61
2023/10/30 02:23:37;;;;;;;0.10;0.10;;;9.90;99.90;;;;;;5071290;28;20555;-60
2023/10/30 02:26:03;;;;;;;0.22;0.22;;;10.00;99.90;;;;;;5071484;28;20166;-60
2023/10/30 02:28:29;;;;;;;0.20;0.20;;;10.00;99.90;;;;;;5071688;28;20048;-60
2023/10/30 02:30:54;;;;;;;0.20;0.20;;;10.10;99.90;;;;;;5071567;28;20052;-60
2023/10/30 02:33:20;;;;;;;0.20;0.20;;;9.80;99.90;;;;;;5071649;28;20068;-61
2023/10/30 02:35:46;;;;;;;0.13;0.13;;;9.50;99.90;;;;;;5071464;28;20044;-60
2023/10/30 02:38:12;;;;;;;0.32;0.32;;;9.50;99.90;;;;;;5071279;28;20040;-60
2023/10/30 02:40:37;;;;;;;0.30;0.30;;;9.90;99.90;;;;;;5053193;28;20094;-61
2023/10/30 02:43:03;;;;;;;0.43;0.30;;;9.50;99.90;;;;;;5071317;28;20093;-61
2023/10/30 02:45:29;;;;;;;0.20;0.20;;;9.80;99.90;;;;;;5071565;28;20529;-60
2023/10/30 02:47:54;;;;;;;0.20;0.20;;;9.60;99.90;;;;;;5071518;28;20051;-61
2023/10/30 02:50:20;;;;;;;0.20;0.20;;;9.50;99.90;;;;;;5053324;28;20049;-61
2023/10/30 02:52:46;;;;;;;0.65;0.25;;;9.80;99.90;;;;;;5071015;28;20048;-61
2023/10/30 02:55:11;;;;;;;0.20;0.20;;;9.50;99.90;;;;;;5070985;28;20103;-61
2023/10/30 02:57:37;;;;;;;1.48;1.33;;;9.30;99.90;;;;;;5071307;28;20048;-61
2023/10/30 03:00:04;;;;;;;0.10;0.10;;;9.40;99.90;;;;;;5071026;28;21273;-61
2023/10/30 03:02:30;;;;;;;0.70;0.70;;;9.20;99.90;;;;;;5070981;28;20088;-60
2023/10/30 03:04:55;;;;;;;0.22;0.22;;;9.60;99.90;;;;;;5071019;28;20107;-62
2023/10/30 03:07:21;;;;;;;0.20;0.20;;;9.10;99.90;;;;;;5071146;28;20040;-61
2023/10/30 03:09:47;;;;;;;2.30;0.43;;;9.30;99.90;;;;;;5070959;28;20063;-61
2023/10/30 03:12:12;;;;;;;0.20;0.20;;;9.00;99.90;;;;;;5071091;28;20048;-61
2023/10/30 03:14:38;;;;;;;0.20;0.20;;;9.40;99.90;;;;;;5071113;28;20435;-60
2023/10/30 03:17:05;;;;;;;0.20;0.20;;;9.00;99.90;;;;;;5071098;28;20044;-60
2023/10/30 03:19:32;;;;;;;0.20;0.20;;;8.70;99.90;;;;;;5070967;28;20048;-61
2023/10/30 03:21:58;;;;;;;0.10;0.10;;;9.00;99.90;;;;;;5070979;28;20045;-62
2023/10/30 03:24:23;;;;;;;0.15;0.15;;;8.70;99.90;;;;;;5070798;28;20051;-61
2023/10/30 03:26:50;;;;;;;0.20;0.20;;;9.30;99.90;;;;;;5071009;28;20151;-61
2023/10/30 03:29:16;;;;;;;1.00;1.00;;;8.90;99.90;;;;;;5052889;28;20044;-62
2023/10/30 03:31:41;;;;;;;0.25;0.25;;;9.20;99.90;;;;;;5070734;28;20033;-60
2023/10/30 03:34:07;;;;;;;0.60;0.60;;;9.00;99.90;;;;;;5070670;28;20068;-60
2023/10/30 03:36:33;;;;;;;0.45;0.45;;;8.80;99.90;;;;;;5070899;28;20054;-61
2023/10/30 03:38:58;;;;;;;0.30;0.30;;;9.30;99.90;;;;;;5070704;28;20499;-60
2023/10/30 03:41:24;;;;;;;0.30;0.30;;;9.20;99.90;;;;;;5070451;28;20044;-61
2023/10/30 03:43:50;;;;;;;0.20;0.20;;;9.10;99.90;;;;;;5070748;28;20044;-61
2023/10/30 03:46:15;;;;;;;0.40;0.40;;;9.40;99.90;;;;;;5070837;28;20139;-61
2023/10/30 03:48:41;;;;;;;1.38;1.10;;;9.10;99.90;;;;;;5071637;28;20389;-61
2023/10/30 03:51:07;;;;;;;0.40;0.40;;;9.20;99.90;;;;;;5074514;28;20044;-61
2023/10/30 03:53:32;;;;;;;1.55;0.55;;;9.00;99.90;;;;;;5074394;28;20121;-60
2023/10/30 03:55:58;;;;;;;0.40;0.40;;;9.20;99.90;;;;;;5073903;28;20048;-61
2023/10/30 03:58:25;;;;;;;0.30;0.30;;;9.60;99.90;;;;;;5074107;28;20171;-60
2023/10/30 04:00:51;;;;;;;0.10;0.10;;;9.20;99.90;;;;;;5073941;28;20553;-60
2023/10/30 04:03:16;;;;;;;0.22;0.22;;;9.70;99.90;;;;;;5074006;28;20052;-61
2023/10/30 04:05:42;;;;;;;0.20;0.20;;;9.20;99.90;;;;;;5074321;28;20118;-61
2023/10/30 04:08:08;;;;;;;0.13;0.13;;;9.10;99.90;;;;;;5074133;28;20106;-61
2023/10/30 04:10:34;;;;;;;0.38;0.38;;;9.10;99.90;;;;;;5074170;28;20044;-61
2023/10/30 04:12:59;;;;;;;0.30;0.30;;;9.60;99.90;;;;;;5074139;28;20123;-61
2023/10/30 04:15:25;;;;;;;0.30;0.30;;;9.00;99.90;;;;;;5073963;28;20076;-61
2023/10/30 04:17:52;;;;;;;0.20;0.20;;;9.60;99.90;;;;;;5073691;28;20103;-62
2023/10/30 04:20:17;;;;;;;1.45;0.38;;;9.20;99.90;;;;;;5073809;28;20048;-61
2023/10/30 04:22:43;;;;;;;0.45;0.45;;;9.50;99.90;;;;;;5073767;28;20047;-61
2023/10/30 04:25:08;;;;;;;0.30;0.30;;;8.90;99.90;;;;;;5073730;28;20055;-61
2023/10/30 04:27:34;;;;;;;0.52;0.47;;;9.40;99.90;;;;;;5073506;28;20049;-61
2023/10/30 04:30:02;;;;;;;0.30;0.30;;;9.30;99.90;;;;;;5074121;28;20071;-61
2023/10/30 04:32:28;;;;;;;0.50;0.50;;;9.60;99.90;;;;;;5073751;28;20392;-61
2023/10/30 04:34:53;;;;;;;0.35;0.35;;;9.10;99.90;;;;;;5073415;28;20123;-60
2023/10/30 04:37:20;;;;;;;0.20;0.20;;;9.20;99.90;;;;;;5073518;28;20036;-61
2023/10/30 04:39:46;;;;;;;0.20;0.20;;;9.50;99.90;;;;;;5074035;28;20190;-60
2023/10/30 04:42:12;;;;;;;0.20;0.20;;;9.20;99.90;;;;;;5073258;28;20531;-63
2023/10/30 04:44:38;;;;;;;;;;;9.20;99.90;;;;;;5073996;28;20044;-61
2023/10/30 04:47:04;;;;;;;0.30;0.30;;;9.50;99.90;;;;;;5073413;28;19920;-61
2023/10/30 04:49:34;;;;;;;5.38;0.50;;;9.60;99.90;;;;;;5073422;28;20080;-60
2023/10/30 04:52:00;;;;;;;0.20;0.20;;;9.20;99.90;;;;;;5072963;28;20037;-61
2023/10/30 04:54:26;;;;;;;0.28;0.28;;;9.30;99.90;;;;;;5073400;28;20154;-61
2023/10/30 04:56:52;;;;;;;0.30;0.30;;;9.20;99.90;;;;;;5073187;28;20119;-62
2023/10/30 04:59:17;;;;;;;0.20;0.20;;;9.20;99.90;;;;;;5073133;28;20052;-62
2023/10/30 05:01:43;;;;;;;0.40;0.40;;;9.20;99.90;;;;;;5072611;28;20044;-63
2023/10/30 05:04:09;;;;;;;0.20;0.20;;;9.40;99.90;;;;;;5073177;28;20056;-60
2023/10/30 05:06:34;;;;;;;0.20;0.20;;;9.60;99.90;;;;;;5072818;28;20040;-61
2023/10/30 05:09:00;;;;;;;0.20;0.20;;;9.80;99.90;;;;;;5073160;28;20052;-60
2023/10/30 05:11:26;;;;;;;0.45;0.45;;;9.50;99.90;;;;;;5073179;28;20049;-60
2023/10/30 05:13:52;;;;;;;0.30;0.30;;;9.30;99.90;;;;;;5073005;28;20056;-60
2023/10/30 05:16:17;;;;;;;0.20;0.20;;;9.30;99.90;;;;;;5072946;28;20058;-61
2023/10/30 05:18:43;;;;;;;0.30;0.30;;;9.40;99.90;;;;;;5073001;28;20048;-61
2023/10/30 05:21:09;;;;;;;2.80;0.55;;;9.20;99.90;;;;;;5054917;28;20056;-62
2023/10/30 05:23:35;;;;;;;2.15;0.40;;;9.20;99.90;;;;;;5072814;28;20044;-61
2023/10/30 05:26:01;;;;;;;0.40;0.40;;;9.30;99.90;;;;;;5072449;28;20105;-61
2023/10/30 05:28:26;;;;;;;1.75;0.88;;;9.30;99.90;;;;;;5072928;28;20099;-60
2023/10/30 05:30:52;;;;;;;3.22;0.95;;;9.30;99.90;;;;;;5072559;28;20055;-60
2023/10/30 05:33:18;;;;;;;0.75;0.65;;;9.50;99.90;;;;;;5072685;28;20072;-61
2023/10/30 05:35:50;;;;;;;8.82;0.50;;;9.50;99.90;;;;;;5072188;28;20086;-61
2023/10/30 05:38:15;;;;;;;0.20;0.20;;;9.50;99.90;;;;;;5072609;28;20064;-62
2023/10/30 05:40:43;;;;;;;0.50;0.50;;;8.80;99.90;;;;;;5072455;28;20632;-61
2023/10/30 05:43:08;;;;;;;0.20;0.20;;;9.40;99.90;;;;;;5072267;28;20047;-61
2023/10/30 05:45:34;;;;;;;0.45;0.45;;;9.10;99.90;;;;;;5071923;28;20048;-61
2023/10/30 05:48:00;;;;;;;0.10;0.10;;;9.30;99.90;;;;;;5072434;28;20052;-60
2023/10/30 05:50:25;;;;;;;0.43;0.43;;;9.40;99.90;;;;;;5071996;28;20472;-61
2023/10/30 05:52:51;;;;;;;0.17;0.17;;;9.00;99.90;;;;;;5072170;28;20049;-62
2023/10/30 05:55:17;;;;;;;0.43;0.43;;;9.30;99.90;;;;;;5072055;28;20098;-61
2023/10/30 05:57:45;;;;;;;2.83;0.68;;;9.40;99.90;;;;;;5072198;28;20109;-61
2023/10/30 06:00:11;;;;;;;16.17;0.55;;;9.30;99.90;;;;;;5071720;28;20136;-61
2023/10/30 06:02:37;;;;;;;0.28;0.28;;;9.60;99.90;;;;;;5071524;28;20072;-61
2023/10/30 06:05:05;;;;;;;0.20;0.20;;;9.20;99.90;;;;;;5071904;28;20627;-63
2023/10/30 06:07:30;;;;;;;0.20;0.20;;;9.00;99.90;;;;;;5072032;28;20048;-60
2023/10/30 06:09:57;;;;;;;0.20;0.20;;;9.20;99.90;;;;;;5070320;28;20538;-60
2023/10/30 06:12:23;;;;;;;0.55;0.55;;;9.40;99.90;;;;;;5062287;28;20133;-61
2023/10/30 06:14:48;;;;;;;0.35;0.35;;;8.90;99.90;;;;;;5071377;28;20492;-62
2023/10/30 06:17:15;;;;;;;0.30;0.30;;;9.40;99.90;;;;;;5068199;28;20056;-61
2023/10/30 06:19:40;;;;;;;0.40;0.40;;;9.60;99.90;;;;;;5069416;28;20040;-61
2023/10/30 06:22:06;;;;;;;0.20;0.20;;;9.20;99.90;;;;;;5071352;28;20405;-61
2023/10/30 06:24:32;;;;;;;0.28;0.28;;;8.80;99.90;;;;;;5071546;28;20090;-61
2023/10/30 06:26:58;;;;;;;0.20;0.20;;;9.10;99.90;;;;;;5071649;28;20052;-61
2023/10/30 06:29:24;;;;;;;1.08;1.00;;;9.10;99.90;;;;;;5071150;28;20053;-61
2023/10/30 06:31:49;;;;;;;0.10;0.10;;;9.20;99.90;;;;;;5071652;28;20051;-61
2023/10/30 06:34:15;;;;;;;0.55;0.55;;;9.00;99.90;;;;;;5071751;28;20044;-61
2023/10/30 06:36:41;;;;;;;0.20;0.20;;;9.10;99.90;;;;;;5069169;28;20040;-61
2023/10/30 06:39:07;;;;;;;0.30;0.30;;;8.80;99.90;;;;;;5065419;28;20044;-61
2023/10/30 06:41:32;;;;;;;0.65;0.65;;;8.80;99.90;;;;;;5064788;28;20123;-61
2023/10/30 06:43:58;;;;;;;0.50;0.50;;;8.50;99.90;;;;;;5064854;28;20562;-61
2023/10/30 06:46:24;;;;;;;0.20;0.20;;;8.70;99.90;;;;;;5063140;28;20072;-61
2023/10/30 06:48:50;;;;;;;;;;;8.70;99.90;;;;;;5065576;28;20041;-61
2023/10/30 06:51:15;;;;;;;0.20;0.20;;;9.30;99.90;;;;;;5062411;28;19920;-61
2023/10/30 06:53:41;;;;;;;0.20;0.20;;;8.70;99.90;;;;;;5069022;28;20040;-60
2023/10/30 06:56:07;;;;;;;0.30;0.30;;;9.00;99.90;;;;;;5053682;28;20131;-62
2023/10/30 06:58:32;;;;;;;0.40;0.40;;;8.50;99.90;;;;;;5060476;28;20053;-61
2023/10/30 07:01:04;;;;;;;0.50;0.50;;;8.90;99.90;;;;;;5062565;28;20449;-61
2023/10/30 07:03:32;;;;;;;0.30;0.30;;;8.90;99.90;;;;;;5070026;28;20052;-62
2023/10/30 07:05:58;;;;;;;0.38;0.30;;;8.90;99.90;;;;;;5070790;28;20048;-61
2023/10/30 07:08:24;;;;;;;1.38;0.82;;;8.70;99.90;;;;;;5071047;28;20425;-62
2023/10/30 07:10:49;;;;;;;0.20;0.20;;;9.30;99.90;;;;;;5071228;28;20036;-61
2023/10/30 07:13:15;;;;;;;0.30;0.30;;;9.40;99.90;;;;;;5052970;28;20095;-60
2023/10/30 07:15:41;;;;;;;0.40;0.32;;;9.10;99.90;;;;;;5053418;28;20048;-61
2023/10/30 07:18:06;;;;;;;0.30;0.30;;;9.10;99.90;;;;;;5071051;28;20044;-61
2023/10/30 07:20:32;;;;;;;0.20;0.20;;;9.20;99.90;;;;;;5071276;28;20131;-61
2023/10/30 07:22:58;;;;;;;0.45;0.45;;;9.40;99.90;;;;;;5070703;28;20036;-60
2023/10/30 07:25:23;;;;;;;0.40;0.40;;;9.60;99.90;;;;;;5074822;28;20385;-60
2023/10/30 07:27:49;;;;;;;0.68;0.52;;;9.40;99.90;;;;;;5074840;28;20060;-61
2023/10/30 07:30:15;;;;;;;0.20;0.20;;;9.20;99.90;;;;;;5074905;28;20052;-61
2023/10/30 07:32:41;;;;;;;0.75;0.75;;;9.70;99.90;;;;;;5074778;28;20114;-61
2023/10/30 07:35:07;;;;;;;0.47;0.47;;;9.40;99.90;;;;;;5075159;28;20527;-61
2023/10/30 07:37:36;;;;;;;4.15;2.38;;;9.40;99.90;;;;;;5074707;28;20048;-61
2023/10/30 07:40:05;;;;;;;0.90;0.47;;;9.40;99.90;;;;;;5074739;28;20037;-60
2023/10/30 07:42:31;;;;;;;0.20;0.20;;;9.00;99.90;;;;;;5074430;28;20048;-61
2023/10/30 07:44:57;;;;;;;4.40;3.72;;;9.70;99.90;;;;;;5074571;28;20056;-63
2023/10/30 07:47:23;;;;;;;0.20;0.20;;;9.60;99.90;;;;;;5074672;28;20384;-61
2023/10/30 07:49:49;;;;;;;0.20;0.20;;;10.40;99.90;;;;;;5074380;28;20080;-61
2023/10/30 07:52:14;;;;;;;0.30;0.30;;;9.80;99.90;;;;;;5074155;28;20404;-61
2023/10/30 07:54:40;;;;;;;0.30;0.30;;;9.90;99.90;;;;;;5074504;28;20048;-61
2023/10/30 07:57:08;;;;;;;0.20;0.20;;;10.00;99.90;;;;;;5074146;28;20036;-61
2023/10/30 07:59:35;;;;;;;0.20;0.20;;;9.90;99.90;;;;;;5074201;28;20054;-61
2023/10/30 08:02:01;;;;;;;0.45;0.45;;;10.30;99.90;;;;;;5073360;28;20048;-61
2023/10/30 08:04:27;;;;;;;0.20;0.20;;;10.30;99.90;;;;;;5074263;28;20114;-60
2023/10/30 08:06:52;;;;;;;0.50;0.50;;;10.80;99.90;;;;;;5074124;28;20045;-63
2023/10/30 08:09:18;;;;;;;0.22;0.22;;;10.20;99.90;;;;;;5073931;28;20055;-61
2023/10/30 08:11:44;;;;;;;0.20;0.20;;;10.60;99.90;;;;;;5073979;28;20055;-60
2023/10/30 08:14:09;;;;;;;0.32;0.32;;;10.50;99.90;;;;;;5073976;28;20071;-62
2023/10/30 08:16:35;;;;;;;0.25;0.25;;;10.60;99.90;;;;;;5073744;28;20455;-61
2023/10/30 08:19:01;;;;;;;2.65;0.93;;;10.90;99.90;;;;;;5056085;28;20458;-60
2023/10/30 08:21:28;;;;;;;0.60;0.47;;;11.00;99.90;;;;;;5073589;28;20079;-60
2023/10/30 08:23:53;;;;;;;0.57;0.57;;;10.90;99.90;;;;;;5073949;28;20051;-61
2023/10/30 08:26:19;;;;;;;0.20;0.20;;;11.00;99.90;;;;;;5073648;28;20875;-60
2023/10/30 08:28:45;;;;;;;8.45;0.40;;;11.00;99.90;;;;;;5074470;28;20067;-64
2023/10/30 08:31:11;;;;;;;0.10;0.10;;;10.90;99.90;;;;;;5073866;28;20044;-61
2023/10/30 08:33:38;;;;;;;0.30;0.30;;;10.90;99.90;;;;;;5074158;28;20550;-61
2023/10/30 08:36:04;;;;;;;0.20;0.20;;;11.20;99.90;;;;;;5073052;28;20395;-61
2023/10/30 08:38:30;;;;;;;;;;;10.70;99.90;;;;;;5074070;28;20040;-61
2023/10/30 08:40:56;;;;;;;1.30;1.20;;;11.50;99.90;;;;;;5073361;28;19932;-61
2023/10/30 08:43:21;;;;;;;0.20;0.20;;;11.20;99.90;;;;;;5073582;28;20041;-61
2023/10/30 08:45:47;;;;;;;0.50;0.50;;;11.20;99.90;;;;;;5073443;28;20045;-61
2023/10/30 08:48:13;;;;;;;1.10;0.73;;;11.50;99.90;;;;;;5073551;28;20087;-61
2023/10/30 08:50:40;;;;;;;0.63;0.63;;;11.50;99.90;;;;;;5073673;28;20040;-60
2023/10/30 08:53:07;;;;;;;0.10;0.10;;;11.80;99.90;;;;;;5073367;28;20119;-62
2023/10/30 08:55:32;;;;;;;0.55;0.55;;;11.50;99.90;;;;;;5073189;28;20056;-61
2023/10/30 08:57:58;;;;;;;0.10;0.10;;;11.50;99.90;;;;;;5073668;28;20395;-61
2023/10/30 09:00:24;;;;;;;0.15;0.15;;;11.40;99.90;;;;;;5055511;28;20049;-61
2023/10/30 09:02:49;;;;;;;0.30;0.30;;;11.30;99.90;;;;;;5073262;28;20056;-61
2023/10/30 09:05:15;;;;;;;0.25;0.25;;;11.70;99.90;;;;;;5073044;28;20396;-62
2023/10/30 09:07:43;;;;;;;0.40;0.40;;;11.40;99.90;;;;;;5073126;28;20041;-61
2023/10/30 09:10:09;;;;;;;0.30;0.30;;;11.60;99.90;;;;;;5072796;28;20385;-60
2023/10/30 09:12:34;;;;;;;0.30;0.30;;;11.50;99.90;;;;;;5072790;28;20481;-61
2023/10/30 09:15:00;;;;;;;1.65;0.77;;;11.50;99.90;;;;;;5072603;28;20094;-62
2023/10/30 09:17:26;;;;;;;1.10;0.55;;;11.70;99.90;;;;;;5072875;28;20072;-61
2023/10/30 09:19:51;;;;;;;0.38;0.38;;;11.50;99.90;;;;;;5072250;28;20049;-61
2023/10/30 09:22:17;;;;;;;0.50;0.50;;;11.70;99.90;;;;;;5072775;28;20087;-61
2023/10/30 09:24:43;;;;;;;0.28;0.28;;;12.40;99.90;;;;;;5072376;28;20463;-62
2023/10/30 09:27:09;;;;;;;0.57;0.43;;;12.50;99.90;;;;;;5072844;28;20066;-61
2023/10/30 09:29:35;;;;;;;8.57;1.05;;;12.50;99.90;;;;;;5072605;28;20055;-61
2023/10/30 09:32:03;;;;;;;0.20;0.20;;;12.90;99.90;;;;;;5072654;28;20048;-62
2023/10/30 09:34:29;;;;;;;0.70;0.70;;;12.70;99.90;;;;;;5072640;28;20044;-62
2023/10/30 09:36:55;;;;;;;0.35;0.35;;;12.90;99.90;;;;;;5072636;28;20131;-61
2023/10/30 09:39:21;;;;;;;0.10;0.10;;;12.80;99.90;;;;;;5072397;28;20438;-62
2023/10/30 09:41:47;;;;;;;0.10;0.10;;;13.20;99.90;;;;;;5072578;28;20127;-61
2023/10/30 09:44:13;;;;;;;0.32;0.32;;;12.90;99.90;;;;;;5072236;28;20048;-61
2023/10/30 09:46:39;;;;;;;0.35;0.35;;;13.20;99.90;;;;;;5071716;28;20697;-61
2023/10/30 09:49:10;;;;;;;;;;;12.80;99.90;;;;;;5072326;28;20424;-61
2023/10/30 09:51:37;;;;;;;0.68;0.68;;;13.30;99.90;;;;;;5072329;28;19920;-61
2023/10/30 09:54:04;;;;;;;0.10;0.10;;;12.80;99.90;;;;;;5072008;28;20381;-61
2023/10/30 09:56:31;;;;;;;0.10;0.10;;;13.00;99.90;;;;;;5054472;28;20056;-64
2023/10/30 09:58:59;;;;;;;0.10;0.10;;;12.90;99.90;;;;;;5058834;28;20049;-63
2023/10/30 10:01:26;;;;;;;0.13;0.13;;;13.50;99.90;;;;;;5071663;28;20041;-62
2023/10/30 10:03:52;;;;;;;0.38;0.38;;;13.40;99.90;;;;;;5072098;28;20114;-60
2023/10/30 10:06:18;;;;;;;0.20;0.20;;;13.70;99.90;;;;;;5071711;28;20505;-62
2023/10/30 10:08:46;;;;;;;0.20;0.20;;;13.70;99.90;;;;;;5071841;28;20123;-59
2023/10/30 10:11:11;;;;;;;0.20;0.20;;;13.90;99.90;;;;;;5071629;28;20059;-61
2023/10/30 10:13:37;;;;;;;0.20;0.20;;;14.10;99.90;;;;;;5071807;28;20040;-60
2023/10/30 10:16:04;;;;;;;0.30;0.30;;;13.80;99.90;;;;;;5071642;28;20048;-60
2023/10/30 10:18:31;;;;;;;0.10;0.10;;;14.00;99.90;;;;;;5071839;28;20052;-61
2023/10/30 10:21:14;;;;;;;0.63;0.63;;;14.00;99.90;;;;;;5072003;28;20054;-60
2023/10/30 10:23:39;;;;;;;0.20;0.20;;;14.00;99.90;;;;;;5071833;28;20079;-60
2023/10/30 10:26:15;;;;;;;0.65;0.65;;;13.70;99.90;;;;;;5071277;28;20079;-60
2023/10/30 10:28:43;;;;;;;0.38;0.38;;;13.70;99.90;;;;;;5071718;28;20052;-60
2023/10/30 10:31:08;;;;;;;0.10;0.10;;;13.50;99.90;;;;;;5071450;28;20032;-60
2023/10/30 10:33:37;;;;;;;0.30;0.30;;;14.10;99.90;;;;;;5071597;28;20117;-60
2023/10/30 10:36:04;;;;;;;0.20;0.20;;;14.30;99.90;;;;;;5071358;28;20040;-61
2023/10/30 10:38:31;;;;;;;0.28;0.28;;;14.10;99.90;;;;;;5071568;28;20071;-60
2023/10/30 10:40:58;;;;;;;0.20;0.20;;;13.80;99.90;;;;;;5071104;28;20109;-61
2023/10/30 10:43:28;;;;;;;0.17;0.17;;;13.90;99.90;;;;;;5071448;28;20048;-60
2023/10/30 10:45:55;;;;;;;0.38;0.38;;;13.70;99.90;;;;;;5040628;28;20079;-60
2023/10/30 10:48:25;;;;;;;0.38;0.32;;;13.50;99.90;;;;;;5071248;28;20068;-60
2023/10/30 10:50:53;;;;;;;0.30;0.30;;;13.80;99.90;;;;;;5071438;28;20049;-60
2023/10/30 10:53:20;;;;;;;0.63;0.60;;;13.30;99.90;;;;;;5071096;28;20072;-61
2023/10/30 10:55:50;;;;;;;1.02;0.65;;;13.50;99.90;;;;;;5071433;28;20045;-60
2023/10/30 10:58:34;;;;;;;1.15;0.57;;;13.10;99.90;;;;;;5070938;28;20044;-60
2023/10/30 11:01:01;;;;;;;0.10;0.10;;;13.60;99.90;;;;;;5071326;28;20044;-60
2023/10/30 11:03:27;;;;;;;0.38;0.38;;;13.40;99.90;;;;;;5070415;28;20447;-62
2023/10/30 11:05:53;;;;;;;;;;;13.10;99.90;;;;;;5071666;28;20053;-61
2023/10/30 11:08:41;;;;;;;0.20;0.20;;;13.70;99.90;;;;;;5071063;28;20395;-61
2023/10/30 11:11:30;;;;;;;0.20;0.20;;;13.50;99.90;;;;;;5070956;28;20052;-62
2023/10/30 11:14:29;;;;;;;6.32;0.30;;;13.80;99.90;;;;;;5061044;28;20060;-60
2023/10/30 11:17:05;;;;;;;1.95;0.63;;;13.90;99.90;;;;;;5058902;28;20048;-61
2023/10/30 11:19:37;;;;;;;0.10;0.10;;;14.10;99.90;;;;;;5070943;28;20072;-59
2023/10/30 11:22:03;;;;;;;0.82;0.55;;;14.20;99.90;;;;;;5070941;28;20298;-60
2023/10/30 11:24:39;;;;;;;1.65;0.32;;;14.10;99.90;;;;;;5070923;28;20085;-60
2023/10/30 11:27:26;;;;;;;0.20;0.20;;;14.10;99.90;;;;;;5071039;28;20050;-63
2023/10/30 11:29:54;;;;;;;0.30;0.30;;;14.10;99.90;;;;;;5070972;28;20060;-61
2023/10/30 11:32:20;;;;;;;0.10;0.10;;;14.50;99.90;;;;;;5070774;28;20056;-62
2023/10/30 11:34:46;;;;;;;9.75;0.47;;;14.10;99.90;;;;;;5070955;28;20041;-61
2023/10/30 11:37:17;;;;;;;0.20;0.20;;;14.30;99.90;;;;;;5070895;28;20049;-62
2023/10/30 11:39:45;;;;;;;0.20;0.20;;;14.40;99.90;;;;;;5070918;28;20041;-61
2023/10/30 11:42:23;;;;;;;0.10;0.10;;;14.40;99.90;;;;;;5070425;28;20049;-62
2023/10/30 11:44:53;;;;;;;11.50;0.73;;;14.20;99.90;;;;;;5070898;28;20523;-60
2023/10/30 11:47:23;;;;;;;9.30;0.93;;;14.30;99.90;;;;;;5070986;28;20041;-59
2023/10/30 11:49:49;;;;;;;0.15;0.15;;;14.40;99.90;;;;;;5070935;28;20049;-60
2023/10/30 11:52:14;;;;;;;1.08;0.63;;;14.30;99.90;;;;;;5070619;28;20507;-60
2023/10/30 11:54:41;;;;;;;;;;;14.00;99.90;;;;;;5071261;28;20053;-60
2023/10/30 11:57:07;;;;;;;0.45;0.45;;;14.20;99.90;;;;;;5070403;28;19989;-60
2023/10/30 11:59:33;;;;;;;0.60;0.60;;;14.00;99.90;;;;;;5070724;28;20049;-60
2023/10/30 12:01:59;;;;;;;0.43;0.25;;;14.40;99.90;;;;;;5070455;28;20053;-60
2023/10/30 12:04:26;;;;;;;0.43;0.43;;;14.20;99.90;;;;;;5070546;28;20052;-60
2023/10/30 12:06:52;;;;;;;0.17;0.17;;;14.20;99.90;;;;;;5070446;28;20045;-60
2023/10/30 12:09:20;;;;;;;0.20;0.20;;;14.40;99.90;;;;;;5071027;28;20048;-61
2023/10/30 12:11:47;;;;;;;0.10;0.10;;;14.20;99.90;;;;;;5074064;28;20045;-60
2023/10/30 12:14:14;;;;;;;5.95;0.73;;;14.50;99.90;;;;;;5074250;28;20052;-62
2023/10/30 12:16:46;;;;;;;0.10;0.10;;;14.60;99.90;;;;;;5073618;28;20559;-60
2023/10/30 12:19:12;;;;;;;0.40;0.40;;;14.40;99.90;;;;;;5073751;28;20381;-61
2023/10/30 12:21:38;;;;;;;0.45;0.45;;;14.50;99.90;;;;;;5074007;28;20139;-62
2023/10/30 12:24:04;;;;;;;;;;;15.10;99.90;;;;;;5074334;28;20044;-61
2023/10/30 12:26:33;;;;;;;0.10;0.10;;;14.60;99.90;;;;;;5073923;28;20011;-61
2023/10/30 12:29:00;;;;;;;1.55;0.75;;;14.90;99.90;;;;;;5073667;28;20047;-61
2023/10/30 12:31:28;;;;;;;0.90;0.90;;;15.10;99.90;;;;;;5073857;28;20105;-61
2023/10/30 12:34:07;;;;;;;0.40;0.25;;;14.80;99.90;;;;;;5073586;28;20496;-60
2023/10/30 12:36:34;;;;;;;0.20;0.20;;;14.60;99.90;;;;;;5073518;28;20476;-61
2023/10/30 12:39:17;;;;;;;0.10;0.10;;;14.90;99.90;;;;;;5073189;28;20427;-60
2023/10/30 12:41:43;;;;;;;0.25;0.22;;;14.80;99.90;;;;;;5073620;28;20052;-60
2023/10/30 12:44:09;;;;;;;3.53;0.22;;;14.30;99.90;;;;;;5073501;28;20053;-62
2023/10/30 12:46:35;;;;;;;;;;;14.70;99.90;;;;;;5073939;28;20105;-61
2023/10/30 12:49:01;;;;;;;3.92;1.15;;;14.40;99.90;;;;;;5073381;28;19924;-60
2023/10/30 12:51:27;;;;;;;;;;;14.80;99.90;;;;;;5073969;28;20080;-61
2023/10/30 12:53:53;;;;;;;0.77;0.40;;;14.50;99.90;;;;;;5073102;28;19989;-60